| Date | Time | Temp. (oF) | Dew Point (oF) | Rel. Hum. (%) | Press. (in.) | Wind Dir. | Wind Speed (mph) | Hourly Rainfall (in.) |
|
|---|---|---|---|---|---|---|---|---|---|
| 1 | 06/01 | 00:00 | 70 | 64 | 84 | 29.68 | W | 5 | 0.00 |
| 2 | 05/31 | 23:00 | 70 | 65 | 87 | 29.68 | WSW | 3 | 0.00 |
| 3 | 05/31 | 22:00 | 69 | 65 | 89 | 29.69 | SSW | 4 | 0.01 |
| 4 | 05/31 | 21:00 | 78 | 68 | 73 | 29.67 | WNW | 12 | 0.06 |
| 5 | 05/31 | 20:00 | 84 | 64 | 53 | 29.61 | SSW | 3 | 0.00 |
| 6 | 05/31 | 19:00 | 86 | 65 | 51 | 29.60 | W | 8 | 0.00 |
| 7 | 05/31 | 18:00 | 87 | 68 | 54 | 29.59 | S | 7 | 0.00 |
| 8 | 05/31 | 17:00 | 87 | 67 | 53 | 29.62 | SSW | 6 | 0.00 |
| 9 | 05/31 | 16:00 | 87 | 67 | 53 | 29.64 | S | 7 | 0.00 |
| 10 | 05/31 | 15:00 | 88 | 66 | 50 | 29.67 | S | 9 | 0.00 |
| 11 | 05/31 | 14:00 | 87 | 65 | 49 | 29.68 | SSW | 10 | 0.00 |
| 12 | 05/31 | 13:00 | 85 | 67 | 56 | 29.72 | W | 6 | 0.00 |
| 13 | 05/31 | 12:00 | 82 | 68 | 64 | 29.76 | S | 7 | 0.00 |
| 14 | 05/31 | 11:00 | 80 | 69 | 71 | 29.78 | S | 10 | 0.00 |
| 15 | 05/31 | 10:00 | 75 | 68 | 79 | 29.81 | SW | 4 | 0.00 |
| 16 | 05/31 | 09:00 | 72 | 67 | 86 | 29.82 | SW | 6 | 0.00 |
| 17 | 05/31 | 08:00 | 70 | 66 | 89 | 29.83 | SE | 2 | 0.00 |
| 18 | 05/31 | 07:00 | 68 | 66 | 95 | 29.83 | SSW | 5 | 0.00 |
| 19 | 05/31 | 06:00 | 66 | 65 | 99 | 29.83 | SSE | 5 | 0.00 |
| 20 | 05/31 | 05:00 | 66 | 64 | 96 | 29.84 | S | 3 | 0.00 |
| 21 | 05/31 | 04:00 | 67 | 64 | 93 | 29.85 | S | 1 | 0.00 |
| 22 | 05/31 | 03:00 | 68 | 64 | 90 | 29.86 | SSW | 2 | 0.00 |
| 23 | 05/31 | 02:00 | 68 | 64 | 90 | 29.87 | SSW | 3 | 0.00 |
| 24 | 05/31 | 01:00 | 69 | 64 | 86 | 29.88 | SSE | 2 | 0.00 |